Roopville, Georgia
Current Conditions -  °F | °C
As of 11:55 PM on Saturday 22 Nov 2014 (Local Time) from KCCO Reporting Station
Overcast Overcast  
Wind Chill: 13°   Ceiling: 1800
Heat Index: 13°   Visibility: 10mi
Dew Point:   Wind: 8mph
Humidity: 67%   Direction: 110°ESE
Pressure: 30.18"   Gusts: NA
Location:  33.46°N, 85.13°W
Report Text: KCCO 230455Z AUTO 11007KT 10SM OVC018 13/07 A3018 RMK AO2 T01300071
Loading
Personal Weather Stations






























Interactive Weather Map New forecast layout! Learn more

10-Day Weather Forecast

Advertisements
Track Severe Weather on mobile